Terminal Aerodrome Forecast
Issued by NWS Twin Cities, MN

Home | Current Version | Previous Version | Graphics & Text | Print | Product List | Glossary On
Versions: 1 2 3 4 5 6 7 8 9 10 11 12 13 14 15 16 17
234
FTUS43 KMPX 291131
TAFSTC
TAF
KSTC 291131Z 2912/3012 29013KT P6SM BKN022
     FM291400 30015G23KT P6SM VCSH OVC017
     FM291700 30017G25KT P6SM VCSH OVC025
     FM292100 30015G22KT P6SM OVC040
     FM300100 27007KT P6SM SCT040 BKN100=

USA.gov is the U.S. government's official web portal to all federal, state and local government web resources and services.